Time;durP1;ratioP1;P1;durP2;ratioP2;P2;SDS_P1;SDS_P2;PMS_P1;PMS_P2;Temp;Humidity;BMP_temperature;BMP_pressure;BME280_temperature;BME280_humidity;BME280_pressure;Samples;Min_cycle;Max_cycle;Signal;HPM_P1;HPM_P2
2022/05/26 00:01:38;;;;;;;37.28;21.73;;;;;;;18.06;68.88;95671.03;5082438;28;20537;-84
2022/05/26 00:04:04;;;;;;;32.97;22.80;;;;;;;17.99;69.09;95680.03;5084191;28;20054;-84
2022/05/26 00:06:30;;;;;;;35.00;22.45;;;;;;;17.99;69.16;95668.38;5083634;28;20410;-85
2022/05/26 00:08:56;;;;;;;36.75;22.63;;;;;;;17.98;69.60;95680.25;5070892;28;20501;-83
2022/05/26 00:11:31;;;;;;;37.78;23.52;;;;;;;18.00;69.65;95672.75;5071055;28;20123;-85
2022/05/26 00:13:57;;;;;;;35.25;23.05;;;;;;;17.91;69.96;95680.31;5070387;28;20024;-85
2022/05/26 00:16:23;;;;;;;32.90;23.00;;;;;;;17.98;69.86;95674.84;5089949;28;20600;-84
2022/05/26 00:18:48;;;;;;;35.25;22.15;;;;;;;17.98;70.04;95672.13;5069380;28;20031;-83
2022/05/26 00:21:14;;;;;;;35.33;23.33;;;;;;;17.95;69.86;95656.28;5071590;28;20020;-84
2022/05/26 00:23:39;;;;;;;31.17;21.90;;;;;;;17.91;70.01;95654.00;5086743;28;20437;-84
2022/05/26 00:26:05;;;;;;;33.00;22.58;;;;;;;17.94;69.14;95646.50;5070856;28;20032;-84
2022/05/26 00:28:31;;;;;;;36.47;23.35;;;;;;;17.90;69.47;95660.50;5087270;28;20030;-85
2022/05/26 00:30:57;;;;;;;34.55;22.52;;;;;;;17.88;69.60;95664.44;5087763;28;20219;-85
2022/05/26 00:33:22;;;;;;;35.45;23.02;;;;;;;17.79;70.02;95666.59;5087793;28;20020;-84
2022/05/26 00:35:49;;;;;;;36.92;23.35;;;;;;;17.74;70.58;95663.69;5086005;28;20016;-83
2022/05/26 00:38:15;;;;;;;37.33;23.38;;;;;;;17.79;70.45;95678.28;5071719;28;20371;-83
2022/05/26 00:40:41;;;;;;;33.83;22.77;;;;;;;17.79;70.69;95675.59;5069307;28;20545;-85
2022/05/26 00:43:07;;;;;;;36.03;23.35;;;;;;;17.83;70.30;95672.44;5087715;28;20019;-82
2022/05/26 00:45:47;;;;;;;39.38;24.90;;;;;;;17.74;70.61;95663.69;5087675;28;20524;-84
2022/05/26 00:48:14;;;;;;;41.03;23.45;;;;;;;17.78;70.41;95668.47;5087960;28;20035;-83
2022/05/26 00:50:47;;;;;;;36.22;23.73;;;;;;;17.82;69.71;95663.44;5053941;28;20399;-84
2022/05/26 00:53:18;;;;;;;40.30;23.92;;;;;;;17.82;69.42;95663.44;5069130;28;20463;-84
2022/05/26 00:55:50;;;;;;;31.67;22.30;;;;;;;17.78;70.07;95671.19;5087597;28;20032;-84
2022/05/26 00:58:23;;;;;;;34.13;22.90;;;;;;;17.77;70.61;95682.25;5069647;28;20024;-83
2022/05/26 01:00:48;;;;;;;36.28;22.85;;;;;;;17.82;69.45;95678.88;5070061;28;20047;-84
2022/05/26 01:03:26;;;;;;;32.90;22.15;;;;;;;17.77;69.05;95672.25;5086768;28;20024;-85
2022/05/26 01:06:01;;;;;;;32.13;22.17;;;;;;;17.62;69.87;95674.41;5086126;28;20024;-86
2022/05/26 01:08:55;;;;;;;35.38;23.95;;;;;;;17.46;70.92;95673.03;5087593;28;20502;-84
2022/05/26 01:11:22;;;;;;;37.53;23.70;;;;;;;17.40;71.50;95683.69;5088020;28;20031;-83
2022/05/26 01:13:59;;;;;;;36.42;24.55;;;;;;;17.47;71.27;95686.38;5053385;28;20024;-84
2022/05/26 01:16:54;;;;;;;38.55;24.10;;;;;;;17.47;71.45;95680.09;5070142;28;20020;-85
2022/05/26 01:19:45;;;;;;;35.65;24.08;;;;;;;17.54;70.88;95672.75;5077560;28;20048;-85
2022/05/26 01:22:35;;;;;;;35.20;23.90;;;;;;;17.44;70.59;95680.53;5087957;28;20684;-83
2022/05/26 01:25:09;;;;;;;38.72;24.20;;;;;;;17.39;71.00;95692.88;5087515;28;20024;-85
2022/05/26 01:27:39;;;;;;;38.67;23.58;;;;;;;17.34;71.60;95706.22;5087017;28;20039;-84
2022/05/26 01:30:23;;;;;;;36.42;24.10;;;;;;;17.38;71.42;95698.47;5070240;28;20016;-85
2022/05/26 01:32:58;;;;;;;36.28;22.58;;;;;;;17.41;70.79;95700.78;5068452;28;20047;-84
2022/05/26 01:35:28;;;;;;;34.67;22.52;;;;;;;17.45;70.08;95699.31;5086483;28;20398;-84
2022/05/26 01:38:12;;;;;;;34.58;23.80;;;;;;;17.48;70.21;95698.88;5052991;28;20020;-86
2022/05/26 01:41:39;;;;;;;35.72;23.15;;;;;;;17.47;70.01;95696.38;5086548;28;20027;-84
2022/05/26 01:44:11;;;;;;;33.92;22.60;;;;;;;17.49;69.58;95699.72;5044713;28;20116;-84
2022/05/26 01:46:41;;;;;;;32.08;23.30;;;;;;;17.49;69.60;95689.69;5059836;28;20047;-86
2022/05/26 01:49:19;;;;;;;40.97;23.70;;;;;;;17.48;69.55;95682.59;5085266;28;20487;-84
2022/05/26 01:52:07;;;;;;;32.15;23.15;;;;;;;17.48;70.10;95687.19;5087876;28;20488;-84
2022/05/26 01:54:57;;;;;;;40.97;24.35;;;;;;;17.36;70.52;95693.25;5084973;28;20043;-85
2022/05/26 01:57:54;;;;;;;39.13;25.33;;;;;;;17.17;71.30;95693.13;5085386;28;20027;-84
2022/05/26 02:00:19;;;;;;;34.92;23.38;;;;;;;17.14;71.60;95693.56;5084765;28;20044;-84
2022/05/26 02:03:08;;;;;;;41.78;25.15;;;;;;;17.20;71.46;95682.91;5084402;28;20039;-84
2022/05/26 02:05:39;;;;;;;38.10;25.63;;;;;;;17.22;71.76;95680.84;5086239;28;20021;-85
2022/05/26 02:08:09;;;;;;;39.40;24.25;;;;;;;17.22;71.97;95678.13;5068968;28;20111;-85
2022/05/26 02:10:40;;;;;;;42.38;25.58;;;;;;;17.05;72.85;95683.97;5085247;28;20024;-84
2022/05/26 02:13:10;;;;;;;40.63;25.33;;;;;;;16.89;73.35;95691.50;5069468;28;20177;-84
2022/05/26 02:15:57;;;;;;;41.03;26.10;;;;;;;16.95;73.09;95702.50;5068269;28;20035;-85
2022/05/26 02:18:37;;;;;;;40.15;25.77;;;;;;;16.97;73.25;95689.59;5085777;28;20027;-85
2022/05/26 02:21:18;;;;;;;39.40;25.67;;;;;;;17.00;73.07;95686.47;5068811;28;20086;-84
2022/05/26 02:23:48;;;;;;;41.65;27.38;;;;;;;17.02;72.99;95698.75;5068414;28;20482;-84
2022/05/26 02:26:14;;;;;;;44.13;26.88;;;;;;;16.96;73.65;95696.88;5069227;28;20115;-84
2022/05/26 02:31:25;;;;;;;39.05;24.15;;;;;;;17.03;72.25;95681.47;5071780;28;20516;-84
2022/05/26 02:33:52;;;;;;;38.08;24.15;;;;;;;17.05;71.90;95686.66;5067495;28;20462;-84
2022/05/26 02:36:17;;;;;;;38.35;24.17;;;;;;;17.06;71.96;95680.19;5067815;28;20063;-83
2022/05/26 02:38:42;;;;;;;38.50;25.25;;;;;;;16.91;72.85;95686.69;5068093;28;20024;-84
2022/05/26 02:41:08;;;;;;;46.05;26.05;;;;;;;16.96;73.46;95685.22;5084400;28;20418;-84
2022/05/26 02:43:33;;;;;;;41.22;25.38;;;;;;;17.00;73.34;95689.16;5086867;28;20530;-83
2022/05/26 02:46:11;;;;;;;40.22;25.33;;;;;;;17.01;73.09;95694.38;5085209;28;20426;-84
2022/05/26 02:49:09;;;;;;;38.08;24.75;;;;;;;17.04;73.15;95698.53;5085366;28;20032;-85
2022/05/26 02:51:37;;;;;;;50.50;24.88;;;;;;;16.97;71.97;95706.69;5051057;28;20043;-85
2022/05/26 02:54:09;;;;;;;38.15;23.80;;;;;;;16.91;72.62;95700.22;5085567;28;20031;-87
2022/05/26 02:56:45;;;;;;;40.95;25.00;;;;;;;16.89;73.32;95707.75;5086468;28;20085;-85
2022/05/26 02:59:29;;;;;;;38.53;25.70;;;;;;;16.84;73.39;95715.66;5050712;28;20028;-85
2022/05/26 03:01:59;;;;;;;45.35;26.90;;;;;;;16.73;73.69;95719.00;5085342;28;20048;-83
2022/05/26 03:04:32;;;;;;;40.40;25.90;;;;;;;16.71;74.01;95731.91;5067736;28;20464;-84
2022/05/26 03:07:01;;;;;;;;;;;;;;;16.38;74.14;95739.00;5068268;28;20101;-84
2022/05/26 03:09:27;;;;;;;44.00;25.35;;;;;;;16.35;74.66;95744.78;5085210;28;20445;-85
2022/05/26 03:11:56;;;;;;;40.85;25.40;;;;;;;16.40;74.52;95743.16;5083674;28;20116;-84
2022/05/26 03:14:21;;;;;;;46.22;26.63;;;;;;;16.41;74.32;95739.41;5052058;28;20035;-87
2022/05/26 03:16:47;;;;;;;35.90;25.95;;;;;;;16.44;73.82;95733.56;5066411;28;20032;-84
2022/05/26 03:19:12;;;;;;;37.92;25.27;;;;;;;16.48;73.71;95738.56;5068307;28;20424;-84
2022/05/26 03:21:38;;;;;;;40.45;24.70;;;;;;;16.54;73.54;95732.34;5067473;28;20024;-85
2022/05/26 03:24:04;;;;;;;42.30;26.13;;;;;;;16.59;73.46;95732.53;5085241;28;20028;-85
2022/05/26 03:26:29;;;;;;;42.25;24.30;;;;;;;16.59;73.54;95729.81;5088733;28;20031;-83
2022/05/26 03:28:55;;;;;;;43.25;25.95;;;;;;;16.58;73.34;95730.88;5084100;28;20081;-84
2022/05/26 03:31:20;;;;;;;45.85;26.13;;;;;;;16.61;73.34;95737.75;5085003;28;20024;-85
2022/05/26 03:41:57;;;;;;;41.97;24.75;;;;;;;16.89;72.84;95740.25;5069235;28;20039;-83
2022/05/26 03:44:24;;;;;;;38.30;25.02;;;;;;;16.92;73.14;95745.25;5086549;28;20032;-84
2022/05/26 03:46:49;;;;;;;40.85;25.80;;;;;;;16.98;72.94;95749.00;5066941;28;20086;-86
2022/05/26 03:49:15;;;;;;;38.13;25.27;;;;;;;17.01;72.93;95750.44;5051051;28;20028;-85
2022/05/26 03:51:40;;;;;;;34.75;24.52;;;;;;;17.06;72.92;95758.78;5083992;28;20110;-84
2022/05/26 03:54:06;;;;;;;40.05;25.85;;;;;;;17.08;72.82;95769.41;5085595;28;20024;-84
2022/05/26 03:56:31;;;;;;;50.90;24.73;;;;;;;17.09;72.18;95771.13;5084951;28;20035;-86
2022/05/26 03:58:56;;;;;;;37.28;23.45;;;;;;;17.10;71.41;95776.31;5084873;28;20027;-84
2022/05/26 04:01:22;;;;;;;41.00;24.00;;;;;;;17.12;71.14;95776.94;5084031;28;20032;-86
2022/05/26 04:03:48;;;;;;;35.13;23.33;;;;;;;17.18;71.48;95773.38;5083003;28;20021;-86
2022/05/26 04:06:15;;;;;;;37.03;23.92;;;;;;;17.28;70.90;95775.66;5067427;28;20468;-85
2022/05/26 04:08:40;;;;;;;37.08;24.00;;;;;;;17.30;71.29;95783.56;5084125;28;20050;-86
2022/05/26 04:11:06;;;;;;;38.53;24.00;;;;;;;17.30;71.86;95780.88;5067511;28;20433;-83
2022/05/26 04:13:31;;;;;;;37.03;23.27;;;;;;;17.33;71.57;95782.34;5083225;28;20118;-86
2022/05/26 04:15:57;;;;;;;34.97;23.08;;;;;;;17.41;70.85;95785.63;5084905;28;20028;-85
2022/05/26 04:18:22;;;;;;;33.50;22.92;;;;;;;17.44;70.87;95783.56;5083718;28;20043;-87
2022/05/26 04:20:48;;;;;;;35.03;24.08;;;;;;;17.50;70.03;95788.97;5084938;28;20513;-86
2022/05/26 04:23:13;;;;;;;38.25;23.45;;;;;;;17.59;69.47;95786.84;5085489;28;20020;-87
2022/05/26 04:25:38;;;;;;;35.08;22.38;;;;;;;17.67;69.15;95794.75;5082315;28;20102;-85
2022/05/26 04:28:04;;;;;;;34.58;22.90;;;;;;;17.75;68.73;95792.88;5084234;28;20024;-85
2022/05/26 04:30:29;;;;;;;32.05;23.23;;;;;;;17.72;69.18;95802.25;5082510;28;20035;-85
2022/05/26 04:32:56;;;;;;;33.65;23.25;;;;;;;17.74;69.69;95799.31;5083731;28;20024;-87
2022/05/26 04:35:21;;;;;;;35.17;22.88;;;;;;;17.79;69.54;95792.22;5083096;28;20089;-87
2022/05/26 04:37:47;;;;;;;34.67;23.25;;;;;;;17.88;69.26;95792.81;5082998;28;20452;-86
2022/05/26 04:40:12;;;;;;;34.58;22.65;;;;;;;17.89;68.89;95794.47;5084950;28;20726;-86
2022/05/26 04:42:38;;;;;;;40.13;22.63;;;;;;;17.90;68.48;95789.88;5082898;28;20028;-86
2022/05/26 04:45:05;;;;;;;40.53;23.52;;;;;;;18.00;68.23;95790.28;5085031;28;20040;-85
2022/05/26 04:47:30;;;;;;;34.45;22.10;;;;;;;18.15;68.49;95790.00;5065828;28;20020;-89
2022/05/26 04:49:56;;;;;;;35.05;21.85;;;;;;;18.28;68.27;95789.09;5066946;28;20057;-87
2022/05/26 04:52:22;;;;;;;38.28;23.88;;;;;;;18.40;68.57;95789.25;5066209;28;20098;-85
2022/05/26 04:54:48;;;;;;;40.25;22.67;;;;;;;18.63;68.02;95798.72;5087467;28;20031;-89
2022/05/26 04:57:14;;;;;;;33.72;21.60;;;;;;;18.83;67.48;95788.78;5088320;28;20024;-86
2022/05/26 04:59:39;;;;;;;34.70;22.23;;;;;;;19.01;66.45;95796.13;5087821;28;20020;-84
2022/05/26 05:02:05;;;;;;;33.22;22.00;;;;;;;19.25;65.09;95799.09;5071909;28;20024;-86
2022/05/26 05:04:30;;;;;;;33.90;21.48;;;;;;;19.48;63.95;95800.34;5088583;28;20028;-90
2022/05/26 05:06:56;;;;;;;32.33;21.13;;;;;;;19.63;63.63;95809.00;5090399;28;20028;-86
2022/05/26 05:09:22;;;;;;;32.67;19.88;;;;;;;19.73;63.21;95804.91;5069014;28;20065;-85
2022/05/26 05:11:47;;;;;;;29.58;20.23;;;;;;;19.93;62.22;95790.22;5087467;28;20020;-84
2022/05/26 05:14:13;;;;;;;27.02;19.17;;;;;;;20.06;62.05;95798.28;5069386;28;20401;-84
2022/05/26 05:16:42;;;;;;;29.15;19.70;;;;;;;20.16;61.07;95805.91;5086761;28;20032;-85
2022/05/26 05:19:11;;;;;;;27.40;18.42;;;;;;;20.25;60.79;95800.97;5086907;28;20067;-87
2022/05/26 05:21:49;;;;;;;32.22;19.48;;;;;;;20.42;60.02;95800.31;5087480;28;20024;-86
2022/05/26 05:24:21;;;;;;;37.58;19.38;;;;;;;20.61;59.69;95807.41;5089013;28;20056;-85
2022/05/26 05:26:50;;;;;;;26.17;19.70;;;;;;;20.77;59.80;95805.06;5086228;28;20303;-86
2022/05/26 05:29:16;;;;;;;32.20;19.77;;;;;;;20.58;60.73;95823.38;5088009;28;20321;-85
2022/05/26 05:31:45;;;;;;;32.25;20.00;;;;;;;20.51;61.30;95818.00;5086436;28;20511;-85
2022/05/26 05:34:14;;;;;;;32.55;19.70;;;;;;;20.90;60.65;95819.53;5052884;28;20118;-85
2022/05/26 05:36:39;;;;;;;27.73;18.23;;;;;;;21.04;60.24;95826.47;5086804;28;20032;-84
2022/05/26 05:39:04;;;;;;;32.50;18.40;;;;;;;20.99;59.36;95824.47;5085638;28;20020;-86
2022/05/26 05:41:32;;;;;;;29.23;17.02;;;;;;;21.06;58.73;95828.97;5070143;28;20024;-85
2022/05/26 05:43:58;;;;;;;28.63;18.73;;;;;;;20.90;61.11;95834.03;5069069;28;20059;-86
2022/05/26 05:46:23;;;;;;;33.20;18.90;;;;;;;20.83;61.60;95836.03;5086681;28;20476;-86
2022/05/26 05:48:49;;;;;;;26.50;18.45;;;;;;;20.78;62.01;95839.41;5087599;28;20012;-85
2022/05/26 05:51:15;;;;;;;28.65;17.92;;;;;;;20.73;62.40;95852.94;5086947;28;20493;-83
2022/05/26 05:53:40;;;;;;;29.23;17.73;;;;;;;20.73;62.44;95847.50;5052197;28;20035;-86
2022/05/26 05:56:06;;;;;;;25.25;18.90;;;;;;;20.67;63.30;95848.41;5086692;28;20024;-86
2022/05/26 05:58:31;;;;;;;25.80;18.13;;;;;;;20.66;62.52;95841.28;5087496;28;20039;-84
2022/05/26 06:00:57;;;;;;;25.48;18.63;;;;;;;20.63;62.13;95853.50;5085051;28;20039;-84
2022/05/26 06:03:22;;;;;;;26.00;17.45;;;;;;;20.57;62.59;95848.97;5069379;28;20055;-85
2022/05/26 06:05:48;;;;;;;25.92;17.25;;;;;;;20.59;62.44;95847.66;5084261;28;20036;-88
2022/05/26 06:08:13;;;;;;;27.48;18.30;;;;;;;20.65;62.11;95850.53;5068631;28;20055;-86
2022/05/26 06:10:39;;;;;;;30.25;19.23;;;;;;;20.70;62.20;95856.13;5051621;28;20024;-85
2022/05/26 06:13:04;;;;;;;33.35;20.73;;;;;;;20.75;62.47;95858.97;5086614;28;20087;-85
2022/05/26 06:15:30;;;;;;;34.50;20.40;;;;;;;21.01;62.11;95859.66;5086566;28;20104;-86
2022/05/26 06:17:56;;;;;;;32.65;19.85;;;;;;;21.32;61.73;95859.63;5067795;28;20028;-83
2022/05/26 06:20:22;;;;;;;38.10;21.63;;;;;;;21.14;61.64;95860.53;5052724;28;20021;-86
2022/05/26 06:22:47;;;;;;;30.75;19.38;;;;;;;21.15;62.17;95865.75;5086108;28;20039;-85
2022/05/26 06:25:15;;;;;;;37.92;20.27;;;;;;;21.15;62.13;95862.19;5086514;28;20027;-84
2022/05/26 06:30:26;;;;;;;43.03;21.45;;;;;;;21.37;61.83;95876.13;5085181;28;20047;-83
2022/05/26 06:38:23;;;;;;;36.08;21.33;;;;;;;21.86;60.33;95875.06;5085241;28;20065;-85
2022/05/26 06:40:50;;;;;;;30.75;19.63;;;;;;;22.17;58.60;95883.97;5084277;28;20028;-84
2022/05/26 06:43:16;;;;;;;31.40;19.35;;;;;;;22.51;58.43;95887.91;5067756;28;20578;-83
2022/05/26 06:45:41;;;;;;;30.60;18.90;;;;;;;22.75;56.93;95880.50;5067233;28;20139;-86
2022/05/26 06:48:07;;;;;;;30.60;20.02;;;;;;;22.99;56.58;95877.66;5084188;28;20027;-85
2022/05/26 06:50:33;;;;;;;35.45;18.15;;;;;;;23.24;56.10;95884.66;5086294;28;20107;-88
2022/05/26 06:52:58;;;;;;;31.55;17.23;;;;;;;23.36;55.27;95881.84;5082936;28;20039;-85
2022/05/26 06:55:24;;;;;;;34.42;18.00;;;;;;;23.51;55.25;95872.25;5085280;28;20440;-85
2022/05/26 06:57:49;;;;;;;27.45;16.80;;;;;;;23.65;53.92;95876.31;5084525;28;20483;-84
2022/05/26 07:00:15;;;;;;;25.63;14.65;;;;;;;23.88;52.19;95873.63;5086011;28;20516;-84
2022/05/26 07:02:41;;;;;;;20.88;14.95;;;;;;;24.02;51.83;95863.97;5083550;28;20049;-84
2022/05/26 07:05:08;;;;;;;21.40;13.43;;;;;;;24.18;50.86;95864.22;5083837;28;20024;-86
2022/05/26 07:07:35;;;;;;;21.35;10.55;;;;;;;24.27;47.90;95864.59;5067622;28;20379;-87
2022/05/26 07:10:01;;;;;;;19.02;10.80;;;;;;;24.47;47.78;95872.28;5083682;28;20028;-84
2022/05/26 07:12:26;;;;;;;21.80;11.60;;;;;;;24.59;48.65;95865.78;5086620;28;20046;-84
2022/05/26 07:14:51;;;;;;;16.55;10.30;;;;;;;24.74;46.55;95868.72;5084467;28;20027;-86
2022/05/26 07:17:17;;;;;;;15.90;8.20;;;;;;;24.97;44.12;95866.81;5084055;28;20020;-85
2022/05/26 07:19:42;;;;;;;16.50;8.13;;;;;;;25.13;44.20;95866.94;5066733;28;20077;-86
2022/05/26 07:22:08;;;;;;;14.10;8.60;;;;;;;25.26;44.56;95872.00;5084299;28;20020;-86
2022/05/26 07:24:33;;;;;;;19.95;9.27;;;;;;;25.43;44.57;95868.31;5085111;28;20035;-85
2022/05/26 07:27:01;;;;;;;18.17;5.45;;;;;;;25.54;39.29;95860.97;5083610;28;20032;-86
2022/05/26 07:29:26;;;;;;;12.98;4.93;;;;;;;25.70;39.52;95867.44;5085827;28;20115;-85
2022/05/26 07:31:51;;;;;;;9.25;4.25;;;;;;;25.91;38.39;95864.81;5084113;28;20111;-86
2022/05/26 07:34:18;;;;;;;8.30;4.13;;;;;;;26.01;36.39;95851.16;5084547;28;20461;-85
2022/05/26 07:42:12;;;;;;;10.82;3.83;;;;;;;26.33;36.45;95871.41;5084610;28;20043;-87
2022/05/26 07:44:40;;;;;;;20.83;4.32;;;;;;;26.39;35.79;95872.28;5082773;28;20032;-84
2022/05/26 07:47:07;;;;;;;11.32;3.90;;;;;;;26.56;35.05;95868.47;5084374;28;20510;-89
2022/05/26 07:49:34;;;;;;;12.80;3.88;;;;;;;26.66;35.43;95871.28;5066288;28;20047;-85
2022/05/26 07:52:01;;;;;;;8.32;3.78;;;;;;;26.76;34.90;95868.53;5067054;28;20056;-84
2022/05/26 07:54:27;;;;;;;10.70;5.28;;;;;;;26.81;34.47;95873.22;5084715;28;20032;-84
2022/05/26 07:56:53;;;;;;;10.02;4.20;;;;;;;26.93;34.05;95870.25;5084891;28;20023;-86
2022/05/26 07:59:19;;;;;;;12.57;4.25;;;;;;;26.87;34.56;95872.16;5050378;28;20030;-84
2022/05/26 08:01:44;;;;;;;14.20;3.83;;;;;;;26.95;34.78;95868.06;5083054;28;20024;-84
2022/05/26 08:04:10;;;;;;;11.35;4.28;;;;;;;27.01;34.97;95869.75;5085895;28;20425;-85
2022/05/26 08:06:35;;;;;;;8.27;3.55;;;;;;;27.02;34.34;95867.81;5084409;28;20023;-84
2022/05/26 08:09:01;;;;;;;12.80;3.85;;;;;;;27.14;34.90;95864.81;5085421;28;20028;-85
2022/05/26 08:11:26;;;;;;;10.55;4.20;;;;;;;27.22;34.34;95867.03;5083012;28;20032;-84
2022/05/26 08:13:52;;;;;;;12.18;4.30;;;;;;;27.35;34.27;95870.31;5083367;28;20415;-84
2022/05/26 08:16:17;;;;;;;13.55;4.50;;;;;;;27.31;34.15;95875.53;5085121;28;20480;-87
2022/05/26 08:18:42;;;;;;;11.27;4.60;;;;;;;27.17;34.73;95875.25;5083375;28;20423;-88
2022/05/26 08:21:09;;;;;;;11.13;4.30;;;;;;;27.20;34.90;95873.88;5084892;28;20043;-84
2022/05/26 08:23:34;;;;;;;9.05;4.15;;;;;;;27.19;34.93;95875.00;5082903;28;20077;-86
2022/05/26 08:26:00;;;;;;;9.20;4.03;;;;;;;27.23;35.32;95876.13;5083706;28;20032;-85
2022/05/26 08:28:25;;;;;;;10.35;4.07;;;;;;;27.13;35.66;95874.97;5084769;28;20449;-85
2022/05/26 08:30:51;;;;;;;13.35;3.90;;;;;;;27.14;35.88;95875.81;5088982;28;20020;-84
2022/05/26 08:33:16;;;;;;;10.75;3.90;;;;;;;27.18;36.06;95885.16;5088219;28;20700;-85
2022/05/26 08:35:42;;;;;;;15.70;4.50;;;;;;;27.01;36.71;95882.66;5088956;28;20486;-87
2022/05/26 08:38:07;;;;;;;8.38;4.00;;;;;;;26.95;37.31;95879.06;5087017;28;20028;-86
2022/05/26 08:40:36;;;;;;;12.40;4.65;;;;;;;26.98;36.98;95888.69;5086954;28;20028;-85
2022/05/26 08:43:03;;;;;;;9.90;4.05;;;;;;;26.87;37.14;95885.09;5088721;28;20036;-85
2022/05/26 08:45:29;;;;;;;10.15;3.67;;;;;;;26.80;36.32;95885.34;5086099;28;20047;-86
2022/05/26 08:47:54;;;;;;;14.63;4.13;;;;;;;26.90;36.69;95876.28;5054069;28;20029;-83
2022/05/26 08:50:31;;;;;;;9.88;3.88;;;;;;;27.00;36.59;95887.34;5052732;28;20462;-85
2022/05/26 08:53:35;;;;;;;13.00;4.03;;;;;;;27.03;35.62;95886.00;5086973;28;20020;-85
2022/05/26 08:56:01;;;;;;;10.88;4.13;;;;;;;26.98;36.26;95888.69;5070740;28;20101;-85
2022/05/26 08:58:28;;;;;;;9.38;3.92;;;;;;;26.97;36.21;95881.53;5087297;28;20040;-85
2022/05/26 09:00:53;;;;;;;10.88;3.60;;;;;;;27.05;35.82;95874.69;5070798;28;20052;-86
2022/05/26 09:03:23;;;;;;;17.65;4.47;;;;;;;27.07;36.23;95881.56;5085833;28;20028;-85
2022/05/26 09:05:52;;;;;;;12.38;4.05;;;;;;;27.18;36.01;95878.84;5086704;28;20028;-85
2022/05/26 09:13:49;;;;;;;10.63;3.85;;;;;;;27.26;37.35;95867.31;5073354;28;20039;-85
2022/05/26 09:16:15;;;;;;;6.55;3.72;;;;;;;27.37;36.15;95868.97;5087412;28;20028;-85
2022/05/26 09:18:41;;;;;;;6.25;3.63;;;;;;;27.44;36.20;95865.91;5088008;28;20471;-86
2022/05/26 09:21:22;;;;;;;11.27;4.18;;;;;;;27.43;36.96;95861.53;5069116;28;20059;-85
2022/05/26 09:23:48;;;;;;;7.85;3.75;;;;;;;27.49;35.34;95867.84;5087373;28;20055;-85
2022/05/26 09:26:18;;;;;;;14.52;4.60;;;;;;;27.55;35.58;95869.53;5069908;28;20082;-86
2022/05/26 09:28:51;;;;;;;12.07;4.45;;;;;;;27.60;35.83;95871.44;5085825;28;20024;-86
2022/05/26 09:31:36;;;;;;;10.68;4.15;;;;;;;27.65;35.24;95874.16;5086743;28;20157;-87
2022/05/26 09:34:08;;;;;;;8.55;4.13;;;;;;;27.66;36.28;95884.13;5087188;28;20052;-87
2022/05/26 09:36:36;;;;;;;10.98;4.22;;;;;;;27.64;35.81;95883.56;5087056;28;20024;-84
2022/05/26 09:39:03;;;;;;;12.35;3.58;;;;;;;27.68;35.98;95879.16;5087203;28;20020;-87
2022/05/26 09:41:28;;;;;;;12.77;4.25;;;;;;;27.70;35.06;95876.97;5068990;28;20034;-86
2022/05/26 09:43:56;;;;;;;9.45;3.97;;;;;;;27.80;35.39;95878.06;5086973;28;20028;-86
2022/05/26 09:46:23;;;;;;;9.73;3.70;;;;;;;27.86;36.08;95868.66;5068256;28;20052;-86
2022/05/26 09:48:51;;;;;;;9.80;3.58;;;;;;;27.97;33.86;95869.50;5053045;28;20028;-85
2022/05/26 09:51:30;;;;;;;9.70;3.38;;;;;;;28.01;34.41;95868.66;5086668;28;20115;-86
2022/05/26 09:53:55;;;;;;;7.28;3.58;;;;;;;28.07;34.23;95868.66;5085825;28;20153;-86
2022/05/26 09:56:32;;;;;;;9.18;3.72;;;;;;;28.18;33.67;95867.50;5086041;28;20103;-86
2022/05/26 09:58:58;;;;;;;10.60;3.65;;;;;;;28.19;33.25;95866.41;5085286;28;20115;-86
2022/05/26 10:01:23;;;;;;;7.40;3.85;;;;;;;28.29;34.08;95859.22;5069336;28;20410;-87
2022/05/26 10:04:10;;;;;;;13.07;3.50;;;;;;;28.29;33.64;95853.69;5086662;28;20016;-84
2022/05/26 10:06:40;;;;;;;7.95;3.17;;;;;;;28.28;33.21;95858.38;5086707;28;20032;-84
2022/05/26 10:09:20;;;;;;;9.32;3.30;;;;;;;28.26;33.18;95860.59;5069341;28;20486;-85
2022/05/26 10:11:59;;;;;;;6.60;3.22;;;;;;;28.16;32.96;95866.16;5084927;28;20044;-85
2022/05/26 10:14:31;;;;;;;9.30;3.45;;;;;;;28.15;33.85;95859.78;5086135;28;20020;-86
2022/05/26 10:17:10;;;;;;;6.03;3.67;;;;;;;28.22;33.59;95859.50;5086225;28;20506;-84
2022/05/26 10:19:57;;;;;;;7.28;3.08;;;;;;;28.23;33.02;95858.38;5086808;28;20032;-86
2022/05/26 10:22:32;;;;;;;5.95;2.88;;;;;;;28.23;32.88;95861.97;5087020;28;20474;-85
2022/05/26 10:25:02;;;;;;;5.93;2.97;;;;;;;28.19;32.43;95860.91;5084615;28;20024;-85
2022/05/26 10:27:37;;;;;;;6.93;3.00;;;;;;;28.20;32.32;95865.28;5085835;28;20024;-85
2022/05/26 10:30:15;;;;;;;6.85;3.15;;;;;;;28.30;31.88;95863.59;5084975;28;20024;-84
2022/05/26 10:32:49;;;;;;;7.85;3.88;;;;;;;28.24;31.24;95857.28;5084999;28;20102;-85
2022/05/26 10:35:25;;;;;;;13.98;3.38;;;;;;;28.23;30.28;95870.25;5086562;28;20060;-85
2022/05/26 10:38:06;;;;;;;5.47;2.60;;;;;;;28.23;30.83;95869.41;5084415;28;20142;-84
2022/05/26 10:41:03;;;;;;;4.88;2.70;;;;;;;28.29;30.52;95864.72;5086861;28;20032;-85
2022/05/26 10:43:34;;;;;;;9.20;2.50;;;;;;;28.35;27.97;95869.97;5084597;28;20025;-85
2022/05/26 10:46:00;;;;;;;6.07;2.53;;;;;;;28.36;28.27;95863.34;5068032;28;20052;-85
2022/05/26 10:48:37;;;;;;;6.57;3.38;;;;;;;28.25;31.42;95859.78;5086886;28;20081;-85
2022/05/26 10:51:08;;;;;;;6.20;2.78;;;;;;;28.11;30.88;95858.72;5066841;28;20509;-84
2022/05/26 10:54:00;;;;;;;7.95;3.15;;;;;;;27.99;28.17;95845.22;5068656;28;20027;-85
2022/05/26 10:56:52;;;;;;;9.73;3.17;;;;;;;27.90;30.34;95844.97;5086065;28;20032;-84
2022/05/26 10:59:35;;;;;;;;;;;;;;;27.96;29.99;95848.53;5054547;28;20756;-84
2022/05/26 11:02:22;;;;;;;6.55;2.90;;;;;;;27.93;30.54;95855.44;5086708;28;20000;-86
2022/05/26 11:05:01;;;;;;;6.85;2.45;;;;;;;28.00;27.34;95849.66;5084016;28;20043;-86
2022/05/26 11:07:30;;;;;;;8.90;2.50;;;;;;;28.05;27.19;95844.09;5084496;28;20084;-83
2022/05/26 11:09:58;;;;;;;7.10;2.60;;;;;;;28.02;28.95;95852.94;5083639;28;20809;-85
2022/05/26 11:12:37;;;;;;;8.27;3.10;;;;;;;28.01;28.64;95843.84;5067291;28;20049;-86
2022/05/26 11:18:08;;;;;;;9.07;3.47;;;;;;;28.23;27.78;95837.16;5069770;28;20109;-83
2022/05/26 11:20:42;;;;;;;7.95;2.75;;;;;;;28.43;27.85;95841.00;5083982;28;20036;-85
2022/05/26 11:23:07;;;;;;;10.70;3.10;;;;;;;28.51;27.64;95831.28;5068903;28;20418;-86
2022/05/26 11:25:51;;;;;;;4.80;2.50;;;;;;;28.45;27.89;95840.69;5083276;28;20518;-85
2022/05/26 11:28:19;;;;;;;8.23;2.72;;;;;;;28.43;28.13;95838.22;5086045;28;20024;-84
2022/05/26 11:36:32;;;;;;;11.75;2.47;;;;;;;28.38;26.31;95811.50;5070905;28;20563;-85
2022/05/26 11:39:01;;;;;;;8.07;2.47;;;;;;;28.38;27.64;95816.19;5067790;28;20103;-84
2022/05/26 11:41:49;;;;;;;10.65;2.53;;;;;;;28.47;28.40;95817.22;5084153;28;20028;-84
2022/05/26 11:44:35;;;;;;;9.30;2.80;;;;;;;28.68;28.24;95816.31;5084836;28;20131;-84
2022/05/26 11:47:19;;;;;;;9.75;3.05;;;;;;;28.68;27.02;95811.59;5082751;28;20138;-85
2022/05/26 11:49:47;;;;;;;10.35;2.60;;;;;;;28.68;26.98;95819.88;5085586;28;20498;-84
2022/05/26 11:52:25;;;;;;;8.02;2.30;;;;;;;28.82;28.64;95820.09;5082864;28;20548;-85
2022/05/26 11:54:58;;;;;;;17.20;3.92;;;;;;;29.00;28.72;95824.13;5084653;28;20401;-86
2022/05/26 11:57:43;;;;;;;8.00;3.28;;;;;;;29.05;29.75;95828.78;5084923;28;20402;-86
2022/05/26 12:00:14;;;;;;;9.68;3.00;;;;;;;29.10;29.58;95814.16;5084599;28;20027;-86
2022/05/26 12:02:40;;;;;;;7.70;3.28;;;;;;;29.25;29.73;95818.72;5086808;28;20032;-85
2022/05/26 12:05:28;;;;;;;10.43;3.30;;;;;;;29.30;30.20;95815.09;5070365;28;20034;-84
2022/05/26 12:07:53;;;;;;;5.60;3.50;;;;;;;29.38;29.92;95828.28;5088807;28;20035;-84
2022/05/26 12:10:21;;;;;;;8.55;3.05;;;;;;;29.44;29.80;95824.34;5087954;28;20017;-84
2022/05/26 12:12:46;;;;;;;5.97;3.28;;;;;;;29.40;29.51;95837.09;5088524;28;20504;-85
2022/05/26 12:15:22;;;;;;;16.05;3.47;;;;;;;29.43;29.35;95836.53;5088242;28;20099;-84